Time;durP1;ratioP1;P1;durP2;ratioP2;P2;SDS_P1;SDS_P2;PMS_P1;PMS_P2;Temp;Humidity;BMP_temperature;BMP_pressure;BME280_temperature;BME280_humidity;BME280_pressure;Samples;Min_cycle;Max_cycle;Signal;HPM_P1;HPM_P2
2022/08/24 00:01:04;;;;;;;10.52;4.47;;;24.10;63.80;;;;;;5054638;28;20532;-76
2022/08/24 00:03:32;;;;;;;6.50;2.60;;;24.10;64.10;;;;;;5054670;28;20020;-76
2022/08/24 00:06:00;;;;;;;7.95;3.10;;;24.10;64.20;;;;;;5054143;28;20594;-76
2022/08/24 00:08:26;;;;;;;12.50;4.03;;;24.10;64.00;;;;;;5054591;28;20042;-76
2022/08/24 00:10:52;;;;;;;7.93;3.95;;;24.10;63.90;;;;;;5072326;28;20028;-76
2022/08/24 00:13:19;;;;;;;5.15;2.63;;;24.10;64.00;;;;;;5072346;28;20392;-77
2022/08/24 00:15:45;;;;;;;9.85;3.50;;;24.10;63.80;;;;;;5071578;28;20544;-76
2022/08/24 00:18:26;;;;;;;10.95;3.30;;;24.10;63.90;;;;;;5054267;28;20031;-76
2022/08/24 00:20:52;;;;;;;10.40;3.58;;;24.10;63.50;;;;;;5037742;23;20455;-75
2022/08/24 00:23:18;;;;;;;11.50;3.58;;;24.10;63.50;;;;;;5054199;28;20024;-76
2022/08/24 00:25:44;;;;;;;10.93;3.67;;;24.10;63.80;;;;;;5053595;28;20036;-76
2022/08/24 00:28:10;;;;;;;9.75;3.78;;;24.10;63.40;;;;;;5072050;28;20025;-75
2022/08/24 00:30:36;;;;;;;8.75;3.92;;;24.10;63.70;;;;;;5037493;28;20025;-75
2022/08/24 00:33:03;;;;;;;9.77;3.45;;;24.10;63.90;;;;;;5037640;28;20032;-75
2022/08/24 00:35:30;;;;;;;11.18;3.22;;;24.10;63.80;;;;;;5053325;28;20032;-75
2022/08/24 00:37:56;;;;;;;8.63;3.30;;;24.10;63.90;;;;;;5037455;28;20147;-75
2022/08/24 00:40:32;;;;;;;8.73;3.33;;;24.10;63.70;;;;;;5037458;28;20028;-75
2022/08/24 00:43:03;;;;;;;8.27;3.13;;;24.10;63.40;;;;;;5037654;28;20042;-75
2022/08/24 00:45:41;;;;;;;6.88;3.45;;;24.10;63.60;;;;;;5071047;28;20024;-76
2022/08/24 00:48:17;;;;;;;6.45;3.30;;;24.10;63.60;;;;;;5071846;28;20031;-76
2022/08/24 00:50:52;;;;;;;9.50;3.30;;;24.20;63.60;;;;;;5053896;28;20071;-75
2022/08/24 00:53:31;;;;;;;7.50;2.83;;;24.10;63.70;;;;;;5053940;28;20074;-76
2022/08/24 00:56:01;;;;;;;7.18;3.08;;;24.10;63.50;;;;;;5069742;28;20108;-75
2022/08/24 00:58:40;;;;;;;8.35;2.83;;;24.20;63.90;;;;;;5072187;28;20535;-76
2022/08/24 01:01:07;;;;;;;6.50;2.75;;;24.10;63.80;;;;;;5053820;28;20530;-76
2022/08/24 01:03:36;;;;;;;7.55;3.10;;;24.10;63.80;;;;;;5037284;28;20024;-76
2022/08/24 01:06:02;;;;;;;11.13;3.03;;;24.10;63.60;;;;;;5036602;28;20153;-76
2022/08/24 13:00:33;;;;;;;275.17;100.28;;;25.00;71.10;;;;;;4992102;28;20125;-76
2022/08/24 13:03:02;;;;;;;253.40;85.95;;;25.10;68.30;;;;;;4992180;28;20062;-76
2022/08/24 13:05:47;;;;;;;231.23;90.82;;;25.10;68.40;;;;;;4996952;28;20037;-75
2022/08/24 13:09:03;;;;;;;174.40;70.43;;;25.00;68.30;;;;;;5011552;28;20030;-75
2022/08/24 13:11:32;;;;;;;103.10;38.42;;;24.90;68.10;;;;;;4951325;29;20300;-75
2022/08/24 13:14:17;;;;;;;;;;;24.80;68.30;;;;;;4951823;28;20082;-76
2022/08/24 13:16:55;;;;;;;99.15;40.55;;;24.80;67.50;;;;;;4987680;28;19913;-76
2022/08/24 13:19:29;;;;;;;105.13;44.85;;;24.80;67.50;;;;;;5011262;28;20386;-76
2022/08/24 13:22:11;;;;;;;53.30;21.90;;;24.80;67.30;;;;;;5012009;28;20041;-77
2022/08/24 13:25:25;;;;;;;46.92;22.85;;;24.80;66.70;;;;;;5011682;28;20084;-76
2022/08/24 13:28:05;;;;;;;43.40;18.23;;;24.90;66.60;;;;;;5006672;28;20038;-77
2022/08/24 13:30:48;;;;;;;36.13;17.13;;;24.80;66.00;;;;;;5010250;28;20033;-76
2022/08/24 13:33:16;;;;;;;35.70;15.90;;;24.80;66.10;;;;;;5010872;28;20033;-76
2022/08/24 13:35:55;;;;;;;42.10;18.48;;;24.80;66.30;;;;;;5011551;28;20030;-77
2022/08/24 13:38:33;;;;;;;39.75;19.25;;;24.80;66.80;;;;;;5010418;28;20048;-77
2022/08/24 13:41:12;;;;;;;36.30;17.77;;;24.80;67.00;;;;;;5011559;28;20049;-77
2022/08/24 13:43:56;;;;;;;21.25;12.25;;;24.80;66.90;;;;;;5010656;28;20030;-77
2022/08/24 13:46:40;;;;;;;34.45;16.40;;;24.70;66.40;;;;;;5015293;28;20041;-76
2022/08/24 13:49:24;;;;;;;31.08;15.82;;;24.70;66.70;;;;;;5015222;28;20394;-76
2022/08/24 13:52:24;;;;;;;30.33;14.13;;;24.70;66.80;;;;;;5013003;28;20029;-76
2022/08/24 13:55:11;;;;;;;24.00;13.27;;;24.70;66.10;;;;;;5005293;28;20459;-76
2022/08/24 13:58:01;;;;;;;42.50;21.05;;;24.70;65.60;;;;;;5005987;28;20037;-76
2022/08/24 14:00:42;;;;;;;39.38;19.83;;;24.70;66.00;;;;;;5003691;28;20034;-75
2022/08/24 14:03:20;;;;;;;36.60;19.63;;;24.70;66.40;;;;;;5004085;28;20057;-75
2022/08/24 14:05:53;;;;;;;36.70;18.50;;;24.60;66.40;;;;;;5004920;28;20073;-75
2022/08/24 14:09:12;;;;;;;46.53;21.60;;;24.60;66.60;;;;;;5002552;28;20030;-75
2022/08/24 14:11:50;;;;;;;38.97;20.42;;;24.60;66.70;;;;;;4965930;28;20426;-75
2022/08/24 14:14:39;;;;;;;41.50;18.85;;;24.60;66.70;;;;;;4981785;28;20054;-76
2022/08/24 14:20:50;;;;;;;39.63;19.80;;;24.60;66.80;;;;;;5004226;28;20030;-75
2022/08/24 14:24:02;;;;;;;42.80;20.33;;;24.60;66.90;;;;;;5008591;28;20030;-75
2022/08/24 14:26:37;;;;;;;36.10;20.23;;;24.60;66.80;;;;;;5014756;28;20030;-75
2022/08/24 14:29:18;;;;;;;35.75;19.98;;;24.70;66.80;;;;;;5014380;28;20543;-75
2022/08/24 14:31:53;;;;;;;39.20;20.08;;;24.70;66.70;;;;;;5014810;28;20037;-75
2022/08/24 14:34:32;;;;;;;37.72;19.50;;;24.70;66.70;;;;;;5014979;28;20036;-75
2022/08/24 14:37:13;;;;;;;39.00;19.33;;;24.70;66.60;;;;;;5011165;28;20022;-75
2022/08/24 14:39:57;;;;;;;38.97;19.27;;;24.70;66.70;;;;;;5007093;28;20109;-74
2022/08/24 14:42:36;;;;;;;39.30;20.33;;;24.70;66.60;;;;;;5014431;28;20108;-74
2022/08/24 14:45:11;;;;;;;35.15;18.65;;;24.70;66.70;;;;;;5013577;28;20041;-74
2022/08/24 14:48:12;;;;;;;35.00;18.65;;;24.60;66.60;;;;;;5014532;28;20416;-74
2022/08/24 14:51:04;;;;;;;40.25;19.75;;;24.70;66.80;;;;;;5014136;28;20025;-74
2022/08/24 14:54:23;;;;;;;32.88;18.52;;;24.60;66.70;;;;;;4999861;28;20030;-74
2022/08/24 14:56:57;;;;;;;;;;;24.70;66.80;;;;;;4953830;29;20038;-75
2022/08/24 14:59:41;;;;;;;35.47;18.55;;;24.60;66.80;;;;;;4991475;28;20063;-74
2022/08/24 15:02:28;;;;;;;33.13;17.85;;;24.60;66.80;;;;;;4999457;28;20079;-74
2022/08/24 15:05:16;;;;;;;37.67;18.17;;;24.60;66.90;;;;;;5008107;28;20029;-74
2022/08/24 15:07:52;;;;;;;38.70;18.95;;;24.60;66.90;;;;;;5013910;28;20371;-74
2022/08/24 15:10:23;;;;;;;39.40;18.67;;;24.60;66.90;;;;;;5013654;28;20030;-74
2022/08/24 15:12:54;;;;;;;35.08;17.63;;;24.60;66.90;;;;;;5007624;28;20041;-75
2022/08/24 15:15:35;;;;;;;30.77;17.27;;;24.60;66.90;;;;;;5004993;28;20037;-73
2022/08/24 15:18:01;;;;;;;39.33;18.40;;;24.60;66.90;;;;;;5013463;28;20053;-76
2022/08/24 15:20:42;;;;;;;31.25;17.33;;;24.60;66.80;;;;;;5003132;28;20464;-75
2022/08/24 15:23:36;;;;;;;35.17;19.10;;;24.60;66.80;;;;;;5005535;28;20025;-75
2022/08/24 15:26:07;;;;;;;31.77;16.92;;;24.60;66.80;;;;;;5007242;28;20034;-75
2022/08/24 15:28:34;;;;;;;29.75;16.90;;;24.60;66.70;;;;;;5012705;28;20125;-77
2022/08/24 15:31:07;;;;;;;30.83;16.10;;;24.70;66.70;;;;;;5013370;28;20034;-75
2022/08/24 15:33:50;;;;;;;24.10;11.15;;;24.70;66.80;;;;;;5013457;28;20112;-74
2022/08/24 15:36:16;;;;;;;23.95;12.68;;;24.80;66.50;;;;;;5008339;28;20034;-71
2022/08/24 15:38:43;;;;;;;24.90;11.27;;;24.90;67.70;;;;;;5007516;28;20057;-71
2022/08/24 15:41:24;;;;;;;20.00;10.00;;;25.00;68.00;;;;;;5013345;28;20030;-71
2022/08/24 15:44:28;;;;;;;22.30;9.30;;;25.10;66.60;;;;;;5013504;28;20022;-71
2022/08/24 15:47:16;;;;;;;13.43;7.55;;;25.00;66.20;;;;;;4933485;29;20112;-71
2022/08/24 15:50:19;;;;;;;22.58;8.98;;;25.10;65.90;;;;;;5010201;28;20053;-71
2022/08/24 15:53:01;;;;;;;19.58;7.80;;;25.10;66.20;;;;;;4980332;28;20042;-71
2022/08/24 15:55:32;;;;;;;15.35;7.43;;;25.10;66.00;;;;;;5012999;28;20072;-71
2022/08/24 15:58:34;;;;;;;14.90;7.53;;;25.10;65.80;;;;;;5011594;28;20026;-71
2022/08/24 16:04:11;;;;;;;17.58;7.78;;;24.90;66.00;;;;;;5013059;28;20468;-71
2022/08/24 16:06:45;;;;;;;18.08;7.25;;;24.90;65.90;;;;;;5012319;28;20033;-71
2022/08/24 16:09:20;;;;;;;15.40;7.03;;;24.90;66.00;;;;;;5012417;28;20038;-71
2022/08/24 16:12:05;;;;;;;15.45;7.80;;;24.80;66.10;;;;;;5012957;28;20096;-71
2022/08/24 16:14:38;;;;;;;19.88;6.40;;;24.90;66.80;;;;;;5012915;28;20029;-71
2022/08/24 16:17:31;;;;;;;14.95;7.32;;;24.90;66.20;;;;;;5012876;28;20033;-71
2022/08/24 16:19:59;;;;;;;17.00;6.40;;;24.80;66.20;;;;;;5012616;28;20132;-71
2022/08/24 16:22:35;;;;;;;14.00;6.20;;;24.80;66.20;;;;;;5012759;28;20032;-71
2022/08/24 16:25:26;;;;;;;15.60;6.90;;;24.80;66.40;;;;;;5011431;28;20026;-71
2022/08/24 16:28:18;;;;;;;15.70;5.75;;;24.80;66.30;;;;;;5012430;28;20030;-71
2022/08/24 16:30:54;;;;;;;13.23;6.15;;;24.80;66.30;;;;;;5008846;28;20042;-71
2022/08/24 16:33:45;;;;;;;18.80;6.60;;;24.80;66.20;;;;;;5011240;28;20034;-71
2022/08/24 16:36:17;;;;;;;17.35;6.47;;;24.80;66.40;;;;;;5012372;28;20477;-71
2022/08/24 16:38:50;;;;;;;13.90;6.28;;;24.80;65.90;;;;;;5011665;28;20042;-71
2022/08/24 16:41:23;;;;;;;15.43;6.25;;;24.80;66.00;;;;;;5012381;28;20060;-71
2022/08/24 16:43:49;;;;;;;14.48;6.05;;;24.80;66.00;;;;;;5012386;28;20026;-71
2022/08/24 16:46:21;;;;;;;15.60;6.22;;;24.80;66.00;;;;;;5012349;28;20496;-71
2022/08/24 16:48:47;;;;;;;15.50;6.30;;;24.80;65.70;;;;;;5011685;28;20021;-71
2022/08/24 16:51:13;;;;;;;12.85;6.25;;;24.80;65.90;;;;;;5011151;28;20037;-71
2022/08/24 16:53:38;;;;;;;13.77;5.85;;;24.80;66.30;;;;;;5012201;28;20030;-71
2022/08/24 16:56:07;;;;;;;12.80;5.57;;;24.80;66.50;;;;;;5012152;28;20065;-71
2022/08/24 16:58:34;;;;;;;15.83;6.30;;;24.80;65.90;;;;;;5011354;28;20478;-71
2022/08/24 17:01:01;;;;;;;12.10;5.78;;;24.80;66.10;;;;;;5030354;28;20025;-71
2022/08/24 17:03:27;;;;;;;11.82;6.70;;;24.80;66.20;;;;;;5031640;28;20024;-71
2022/08/24 17:05:54;;;;;;;16.33;6.40;;;24.80;66.40;;;;;;5031824;28;20026;-70
2022/08/24 17:08:20;;;;;;;16.00;5.47;;;24.80;66.30;;;;;;5031558;28;20022;-71
2022/08/24 17:10:46;;;;;;;16.70;7.13;;;24.80;66.20;;;;;;5031521;28;20496;-71
2022/08/24 17:13:12;;;;;;;18.77;6.95;;;24.80;66.40;;;;;;5031675;28;20495;-71
2022/08/24 17:15:38;;;;;;;19.23;7.45;;;24.80;66.40;;;;;;5030430;28;20029;-71
2022/08/24 17:18:07;;;;;;;14.63;6.93;;;24.80;66.30;;;;;;5032574;28;20116;-71
2022/08/24 17:20:33;;;;;;;17.20;6.72;;;24.80;66.20;;;;;;5019086;28;20031;-71
2022/08/24 17:22:59;;;;;;;17.13;7.50;;;24.80;66.30;;;;;;4998732;28;20026;-71
2022/08/24 17:25:26;;;;;;;14.82;8.73;;;24.80;66.10;;;;;;4998877;28;20026;-71
2022/08/24 17:27:53;;;;;;;15.35;7.22;;;24.80;66.10;;;;;;4998888;28;20033;-71
2022/08/24 17:30:21;;;;;;;10.82;6.07;;;24.80;65.90;;;;;;4998521;28;20394;-71
2022/08/24 17:32:48;;;;;;;12.15;6.50;;;24.80;65.80;;;;;;4998769;28;20038;-71
2022/08/24 17:35:14;;;;;;;13.95;6.63;;;24.80;65.80;;;;;;4998635;28;20482;-70
2022/08/24 17:37:42;;;;;;;14.07;6.10;;;24.80;66.00;;;;;;4998668;28;20056;-71
2022/08/24 17:40:13;;;;;;;10.98;5.85;;;24.80;65.90;;;;;;4998208;28;20402;-71
2022/08/24 17:42:39;;;;;;;15.43;6.55;;;24.80;65.90;;;;;;4998715;28;20029;-71
2022/08/24 17:45:05;;;;;;;11.63;5.85;;;24.80;66.10;;;;;;4998364;28;20030;-72
2022/08/24 17:47:32;;;;;;;13.57;6.43;;;24.80;66.00;;;;;;4998520;28;20038;-71
2022/08/24 17:49:59;;;;;;;14.40;6.40;;;24.80;66.20;;;;;;5015778;28;20029;-71
2022/08/24 17:52:25;;;;;;;15.88;6.20;;;24.70;66.30;;;;;;5018112;28;20088;-71
2022/08/24 17:54:51;;;;;;;11.80;6.38;;;24.80;66.40;;;;;;5018176;28;20029;-71
2022/08/24 17:57:18;;;;;;;14.57;6.35;;;24.80;66.40;;;;;;5018110;28;20034;-71
2022/08/24 17:59:44;;;;;;;16.85;6.00;;;24.70;66.40;;;;;;5017688;28;20092;-75
2022/08/24 18:02:13;;;;;;;15.93;5.75;;;24.80;66.40;;;;;;5013274;28;20058;-72
2022/08/24 18:04:39;;;;;;;;;;;24.70;66.30;;;;;;5014133;28;20097;-73
2022/08/24 18:07:12;;;;;;;11.65;6.28;;;24.70;66.40;;;;;;4998536;28;20392;-72
2022/08/24 18:09:47;;;;;;;13.25;5.80;;;24.70;66.60;;;;;;4998284;28;20030;-72
2022/08/24 18:12:18;;;;;;;16.33;6.28;;;24.70;66.70;;;;;;4998540;28;20045;-72
2022/08/24 18:14:44;;;;;;;15.32;6.30;;;24.70;66.60;;;;;;4997344;28;20034;-72
2022/08/24 18:17:15;;;;;;;12.88;6.35;;;24.70;66.60;;;;;;4998331;28;20041;-72
2022/08/24 18:19:42;;;;;;;14.10;6.78;;;24.60;66.70;;;;;;4996943;28;20050;-73
2022/08/24 18:22:09;;;;;;;14.38;6.78;;;24.70;66.70;;;;;;4998463;28;20398;-73
2022/08/24 18:24:35;;;;;;;13.48;6.15;;;24.60;66.80;;;;;;4998367;28;20080;-72
2022/08/24 18:27:07;;;;;;;13.43;6.50;;;24.60;66.70;;;;;;4998376;28;20152;-72
2022/08/24 18:29:34;;;;;;;13.40;6.13;;;24.60;66.70;;;;;;5012023;28;20069;-73
2022/08/24 18:31:59;;;;;;;30.50;6.93;;;24.60;67.00;;;;;;4995100;28;20422;-73
2022/08/24 18:34:26;;;;;;;19.98;6.13;;;24.60;67.10;;;;;;4994177;28;20042;-72
2022/08/24 18:36:52;;;;;;;18.02;5.88;;;24.60;67.00;;;;;;5010221;28;20076;-72
2022/08/24 18:39:18;;;;;;;14.98;5.97;;;24.70;67.10;;;;;;4993722;28;20502;-73
2022/08/24 18:41:46;;;;;;;19.35;6.05;;;24.70;67.00;;;;;;4994954;28;20109;-73
2022/08/24 18:44:16;;;;;;;16.98;6.45;;;24.70;67.10;;;;;;4995032;28;20026;-78
2022/08/24 18:46:42;;;;;;;;;;;24.70;67.20;;;;;;4993665;28;20044;-80
2022/08/24 18:49:08;;;;;;;13.05;6.35;;;24.70;67.30;;;;;;4998666;28;19910;-78
2022/08/24 18:51:36;;;;;;;22.80;5.97;;;24.80;67.30;;;;;;5005787;28;20030;-78
2022/08/24 18:54:23;;;;;;;15.15;6.35;;;24.70;67.60;;;;;;5014830;28;20424;-76
2022/08/24 18:56:50;;;;;;;12.80;6.07;;;24.70;67.00;;;;;;5014336;28;20026;-76
2022/08/24 18:59:18;;;;;;;12.90;6.20;;;24.70;67.10;;;;;;5014037;28;20026;-76
2022/08/24 19:04:31;;;;;;;14.38;5.85;;;24.70;67.10;;;;;;5014603;28;20022;-78
2022/08/24 19:06:57;;;;;;;11.13;6.18;;;24.60;67.10;;;;;;5014204;28;20478;-78
2022/08/24 19:09:23;;;;;;;9.77;5.82;;;24.60;67.10;;;;;;5012611;28;20030;-78
2022/08/24 19:11:52;;;;;;;14.68;5.75;;;24.60;67.10;;;;;;5014099;28;20044;-78
2022/08/24 19:14:18;;;;;;;12.52;5.78;;;24.60;67.00;;;;;;5014072;28;20034;-77
2022/08/24 19:16:47;;;;;;;11.80;5.68;;;24.60;67.10;;;;;;5013890;28;20029;-77
2022/08/24 19:19:13;;;;;;;11.75;6.25;;;24.60;67.10;;;;;;5013716;28;20029;-77
2022/08/24 19:21:40;;;;;;;10.85;5.85;;;24.60;67.10;;;;;;5013916;28;20026;-77
2022/08/24 19:24:06;;;;;;;16.65;6.28;;;24.60;67.10;;;;;;5012657;28;20026;-77
2022/08/24 19:26:34;;;;;;;10.63;5.68;;;24.60;67.10;;;;;;5013855;28;20030;-77
2022/08/24 19:29:00;;;;;;;16.80;5.95;;;24.60;67.10;;;;;;5013275;28;20374;-77
2022/08/24 19:31:27;;;;;;;12.13;5.90;;;24.60;67.10;;;;;;5013757;28;20030;-77
2022/08/24 19:33:58;;;;;;;11.55;6.18;;;24.60;67.10;;;;;;5013731;28;20030;-77
2022/08/24 19:36:25;;;;;;;9.05;5.53;;;24.60;67.10;;;;;;5013584;28;20041;-77
2022/08/24 19:38:51;;;;;;;14.65;5.97;;;24.60;67.00;;;;;;5013318;28;20029;-77
2022/08/24 19:41:18;;;;;;;12.95;5.90;;;24.60;67.00;;;;;;5012860;28;20026;-77
2022/08/24 19:46:32;;;;;;;30.52;6.15;;;24.50;67.00;;;;;;5012464;28;20100;-78
2022/08/24 19:48:57;;;;;;;9.68;5.07;;;24.60;67.00;;;;;;5011766;28;20022;-77
2022/08/24 19:51:23;;;;;;;9.70;5.63;;;24.60;66.90;;;;;;5013363;28;20504;-77
2022/08/24 19:53:49;;;;;;;11.45;5.90;;;24.60;66.90;;;;;;5013276;28;20037;-78
2022/08/24 19:56:15;;;;;;;10.60;5.57;;;24.60;67.00;;;;;;5013059;28;20041;-78
2022/08/24 19:59:06;;;;;;;13.57;5.80;;;24.60;67.00;;;;;;5012900;28;20109;-78
2022/08/24 20:01:33;;;;;;;11.63;5.82;;;24.60;67.00;;;;;;5012763;28;20038;-78
2022/08/24 20:04:00;;;;;;;13.02;4.97;;;24.50;67.00;;;;;;5013157;28;20105;-78
2022/08/24 20:06:27;;;;;;;10.63;5.43;;;24.50;67.00;;;;;;5013356;28;20421;-77
2022/08/24 20:08:54;;;;;;;8.90;5.38;;;24.60;67.00;;;;;;5012571;28;20028;-77
2022/08/24 20:11:20;;;;;;;9.57;5.00;;;24.50;67.00;;;;;;5013051;28;20033;-77
2022/08/24 20:13:46;;;;;;;11.50;5.68;;;24.50;66.90;;;;;;5011631;28;20030;-78
2022/08/24 20:16:15;;;;;;;9.18;5.38;;;24.60;67.00;;;;;;5012803;28;20033;-78
2022/08/24 20:18:41;;;;;;;8.13;4.93;;;24.60;67.00;;;;;;5012566;28;20026;-78
2022/08/24 20:21:07;;;;;;;11.25;5.25;;;24.60;67.00;;;;;;5012901;28;20109;-78
2022/08/24 20:23:33;;;;;;;9.27;5.45;;;24.60;66.90;;;;;;5012816;28;20022;-78
2022/08/24 20:26:01;;;;;;;11.30;5.72;;;24.60;66.90;;;;;;5012995;28;20469;-78
2022/08/24 20:28:38;;;;;;;8.05;5.15;;;24.60;66.80;;;;;;5012376;28;20553;-78
2022/08/24 20:31:05;;;;;;;9.13;5.82;;;24.60;66.90;;;;;;5012761;28;20537;-79
2022/08/24 20:33:31;;;;;;;7.05;4.88;;;24.60;66.70;;;;;;5012582;28;20105;-78
2022/08/24 20:35:58;;;;;;;8.27;5.22;;;24.60;66.80;;;;;;5012363;28;20038;-78
2022/08/24 20:38:24;;;;;;;8.00;5.20;;;24.60;66.80;;;;;;5012284;28;20030;-77
2022/08/24 20:40:51;;;;;;;8.88;5.18;;;24.60;66.80;;;;;;5012315;28;20095;-78
2022/08/24 20:43:17;;;;;;;8.10;5.32;;;24.60;66.70;;;;;;5011303;28;20040;-78
2022/08/24 20:45:44;;;;;;;8.60;5.35;;;24.60;66.70;;;;;;5012476;28;20034;-77
2022/08/24 20:48:12;;;;;;;8.68;5.47;;;24.60;66.80;;;;;;5011095;28;20497;-79
2022/08/24 20:50:41;;;;;;;11.18;5.20;;;24.60;66.70;;;;;;5011911;28;20030;-78
2022/08/24 20:53:10;;;;;;;9.88;5.40;;;24.50;66.60;;;;;;5011952;28;20528;-78
2022/08/24 20:55:37;;;;;;;11.23;5.50;;;24.60;66.70;;;;;;5010948;28;20386;-78
2022/08/24 20:58:03;;;;;;;8.82;5.20;;;24.60;66.70;;;;;;5012047;28;20553;-78
2022/08/24 21:00:30;;;;;;;9.30;5.25;;;24.50;66.60;;;;;;5010679;28;20079;-79
2022/08/24 21:02:56;;;;;;;7.50;4.75;;;24.60;66.70;;;;;;5012246;28;20025;-79
2022/08/24 21:05:23;;;;;;;6.97;4.88;;;24.50;66.60;;;;;;4994951;28;20527;-79
2022/08/24 21:07:49;;;;;;;9.75;5.15;;;24.50;66.60;;;;;;5011062;28;20436;-78
2022/08/24 21:10:17;;;;;;;8.02;4.90;;;24.50;66.60;;;;;;5010817;28;20033;-78
2022/08/24 21:12:44;;;;;;;9.70;5.18;;;24.50;66.60;;;;;;5010776;28;20424;-78
2022/08/24 21:15:12;;;;;;;8.57;5.18;;;24.50;66.70;;;;;;5012019;28;20030;-79
2022/08/24 21:17:39;;;;;;;8.68;5.10;;;24.50;66.70;;;;;;5010731;28;20042;-78
2022/08/24 21:20:06;;;;;;;9.40;4.68;;;24.50;66.60;;;;;;5011545;28;20030;-78
2022/08/24 21:22:35;;;;;;;9.68;5.15;;;24.50;66.60;;;;;;5011984;28;20037;-78
2022/08/24 21:25:05;;;;;;;8.27;5.13;;;24.50;67.20;;;;;;5010819;28;20433;-79
2022/08/24 21:27:31;;;;;;;;;;;24.50;66.70;;;;;;5012358;28;20037;-79
2022/08/24 21:29:57;;;;;;;8.20;5.03;;;24.50;66.60;;;;;;5011437;28;19928;-79
2022/08/24 21:35:07;;;;;;;7.47;4.63;;;24.50;66.60;;;;;;5011811;28;20042;-79
2022/08/24 21:37:32;;;;;;;7.20;4.55;;;24.50;66.40;;;;;;5011747;28;20041;-79
2022/08/24 21:40:01;;;;;;;9.07;4.75;;;24.50;66.50;;;;;;5010151;28;20022;-79
2022/08/24 21:42:28;;;;;;;7.65;5.13;;;24.50;66.50;;;;;;5010550;28;20034;-78
2022/08/24 21:44:54;;;;;;;7.18;4.85;;;24.50;66.60;;;;;;5011870;28;20363;-77
2022/08/24 21:47:19;;;;;;;5.40;4.40;;;24.50;66.60;;;;;;5011830;28;20453;-79
2022/08/24 21:49:45;;;;;;;7.93;4.65;;;24.50;66.50;;;;;;5011326;28;20088;-79
2022/08/24 21:52:11;;;;;;;7.05;4.25;;;24.50;66.60;;;;;;5011671;28;20034;-79
2022/08/24 21:54:37;;;;;;;7.75;5.03;;;24.50;67.10;;;;;;5011994;28;20057;-79
2022/08/24 21:57:04;;;;;;;6.63;4.80;;;24.50;66.60;;;;;;5010272;28;20057;-78
2022/08/24 21:59:30;;;;;;;8.70;4.82;;;24.50;66.50;;;;;;5011281;28;20023;-78
2022/08/24 22:01:56;;;;;;;7.85;4.68;;;24.50;66.60;;;;;;5011646;28;20504;-78
2022/08/24 22:04:22;;;;;;;8.10;4.28;;;24.50;66.50;;;;;;5011633;28;20284;-78
2022/08/24 22:06:48;;;;;;;6.60;4.75;;;24.50;66.40;;;;;;5015034;28;20026;-79
2022/08/24 22:09:15;;;;;;;6.68;4.50;;;24.50;66.40;;;;;;5013589;28;20409;-79
2022/08/24 22:11:41;;;;;;;8.75;4.75;;;24.50;66.40;;;;;;5015052;28;20041;-79
2022/08/24 22:14:07;;;;;;;7.05;4.80;;;24.50;66.30;;;;;;5015090;28;20117;-78
2022/08/24 22:16:33;;;;;;;8.05;4.78;;;24.60;66.50;;;;;;5015077;28;20110;-78
2022/08/24 22:18:59;;;;;;;6.22;4.60;;;24.50;66.30;;;;;;5014767;28;20553;-78
2022/08/24 22:21:29;;;;;;;6.43;4.57;;;24.60;66.40;;;;;;5015054;28;20030;-78
2022/08/24 22:23:56;;;;;;;5.65;4.15;;;24.50;66.20;;;;;;5015062;28;20489;-77
2022/08/24 22:26:23;;;;;;;6.20;4.30;;;24.50;66.20;;;;;;5015220;28;20476;-78
2022/08/24 22:28:49;;;;;;;6.88;4.55;;;24.50;66.30;;;;;;5013244;28;20065;-78
2022/08/24 22:31:25;;;;;;;7.65;4.53;;;24.50;66.40;;;;;;5014903;28;20072;-77
2022/08/24 22:33:51;;;;;;;7.55;4.78;;;24.50;66.30;;;;;;5013636;28;20061;-78
2022/08/24 22:36:17;;;;;;;7.65;4.57;;;24.50;66.40;;;;;;5013469;28;20100;-78
2022/08/24 22:38:44;;;;;;;7.22;4.60;;;24.50;66.40;;;;;;5014171;28;20485;-78
2022/08/24 22:41:10;;;;;;;6.80;4.40;;;24.50;66.30;;;;;;5013122;28;20071;-78
2022/08/24 22:46:21;;;;;;;9.18;4.22;;;24.50;66.30;;;;;;5014946;28;20030;-78
2022/08/24 22:48:47;;;;;;;7.53;4.93;;;24.50;66.40;;;;;;5014200;28;20029;-78
2022/08/24 22:51:14;;;;;;;7.82;4.80;;;24.50;66.40;;;;;;5014504;28;20026;-78
2022/08/24 22:53:40;;;;;;;6.43;4.70;;;24.50;66.40;;;;;;5013429;28;20398;-78
2022/08/24 22:56:18;;;;;;;8.32;4.80;;;24.50;66.40;;;;;;5013118;28;20037;-78
2022/08/24 22:58:45;;;;;;;6.33;4.03;;;24.50;66.40;;;;;;5013998;28;20026;-78
2022/08/24 23:01:36;;;;;;;5.22;4.20;;;24.50;66.30;;;;;;5014304;28;20096;-78
2022/08/24 23:04:05;;;;;;;7.20;4.60;;;24.50;66.30;;;;;;5014197;28;20080;-77
2022/08/24 23:06:31;;;;;;;6.95;4.47;;;24.50;66.30;;;;;;5013020;28;20026;-78
2022/08/24 23:08:57;;;;;;;7.18;4.82;;;24.50;66.20;;;;;;5013135;28;20037;-78
2022/08/24 23:11:25;;;;;;;6.43;4.82;;;24.50;66.30;;;;;;5013973;28;20030;-78
2022/08/24 23:13:53;;;;;;;8.02;5.15;;;24.50;66.30;;;;;;5013969;28;20497;-77
2022/08/24 23:16:23;;;;;;;6.65;4.45;;;24.50;66.40;;;;;;5012600;28;20444;-79
2022/08/24 23:21:34;;;;;;;6.72;4.70;;;24.50;66.40;;;;;;5013890;28;20029;-78
2022/08/24 23:24:00;;;;;;;6.85;4.65;;;24.50;66.30;;;;;;5012617;28;20470;-78
2022/08/24 23:26:26;;;;;;;6.13;4.45;;;24.50;66.30;;;;;;5012595;28;20517;-78
2022/08/24 23:28:53;;;;;;;6.55;4.45;;;24.50;66.30;;;;;;5012012;28;20040;-78
2022/08/24 23:31:23;;;;;;;8.20;4.70;;;24.50;66.30;;;;;;5012543;28;20037;-78
2022/08/24 23:33:48;;;;;;;8.35;4.47;;;24.50;66.80;;;;;;5013653;28;20044;-78
2022/08/24 23:36:20;;;;;;;6.35;4.50;;;24.50;66.10;;;;;;5012462;28;20439;-79
2022/08/24 23:38:47;;;;;;;6.18;4.20;;;24.50;66.20;;;;;;5012084;28;20112;-78
2022/08/24 23:41:16;;;;;;;5.97;4.20;;;24.50;66.20;;;;;;5012265;28;20034;-79
2022/08/24 23:43:42;;;;;;;8.93;4.40;;;24.50;66.10;;;;;;5012225;28;20022;-79
2022/08/24 23:46:09;;;;;;;6.10;4.25;;;24.50;66.10;;;;;;4996078;28;20501;-78
2022/08/24 23:48:36;;;;;;;7.00;4.47;;;24.50;66.10;;;;;;4995379;28;20501;-78
2022/08/24 23:51:07;;;;;;;6.60;4.50;;;24.50;66.10;;;;;;5012137;28;20057;-78
2022/08/24 23:53:33;;;;;;;7.35;4.53;;;24.50;66.10;;;;;;5013284;28;20058;-78
2022/08/24 23:56:08;;;;;;;6.53;4.15;;;24.50;66.20;;;;;;5011996;28;20033;-78
2022/08/24 23:58:34;;;;;;;6.05;3.97;;;24.50;66.00;;;;;;5012890;28;20125;-78
